createdAt,value
2022-09-24T00:05:37.831Z,17.21
2022-09-24T00:08:04.355Z,17.16
2022-09-24T00:10:30.852Z,17.18
2022-09-24T00:12:57.375Z,17.19
2022-09-24T00:15:23.999Z,17.19
2022-09-24T00:17:50.569Z,17.17
2022-09-24T00:20:17.653Z,17.16
2022-09-24T00:22:44.575Z,17.18
2022-09-24T00:25:29.999Z,17.18
2022-09-24T00:27:59.526Z,17.10
2022-09-24T00:30:41.535Z,17.11
2022-09-24T00:33:08.892Z,17.12
2022-09-24T00:35:36.966Z,17.16
2022-09-24T00:38:05.609Z,17.15
2022-09-24T00:40:35.592Z,17.15
2022-09-24T00:43:02.943Z,17.13
2022-09-24T00:45:32.323Z,17.11
2022-09-24T00:48:13.092Z,17.05
2022-09-24T00:50:46.819Z,16.98
2022-09-24T00:53:33.492Z,16.89
2022-09-24T00:56:12.660Z,16.77
2022-09-24T00:58:56.600Z,16.70
2022-09-24T01:01:30.033Z,16.54
2022-09-24T01:03:58.065Z,16.40
2022-09-24T01:06:25.988Z,16.31
2022-09-24T01:09:04.989Z,16.24
2022-09-24T01:11:31.645Z,16.20
2022-09-24T01:14:04.806Z,16.24
2022-09-24T01:17:10.245Z,16.26
2022-09-24T01:20:15.609Z,16.24
2022-09-24T01:23:17.807Z,16.20
2022-09-24T01:26:21.453Z,16.15
2022-09-24T01:29:23.797Z,16.05
2022-09-24T01:32:05.978Z,15.94
2022-09-24T01:34:40.807Z,15.87
2022-09-24T01:37:08.273Z,15.82
2022-09-24T01:39:38.104Z,15.83
2022-09-24T01:42:05.532Z,15.78
2022-09-24T01:44:34.143Z,15.73
2022-09-24T01:47:01.082Z,15.77
2022-09-24T01:49:28.392Z,15.82
2022-09-24T01:52:01.464Z,15.84
2022-09-24T01:54:35.015Z,15.83
2022-09-24T01:57:22.196Z,15.83
2022-09-24T02:00:01.201Z,15.79
2022-09-24T02:02:46.482Z,15.73
2022-09-24T02:05:39.927Z,15.62
2022-09-24T02:08:12.054Z,15.45
2022-09-24T02:11:16.210Z,15.38
2022-09-24T02:13:51.198Z,15.31
2022-09-24T02:16:24.071Z,15.27
2022-09-24T02:18:54.875Z,15.23
2022-09-24T02:21:24.091Z,15.21
2022-09-24T02:24:04.126Z,15.19
2022-09-24T02:26:30.923Z,15.16
2022-09-24T02:28:59.159Z,15.15
2022-09-24T02:34:54.065Z,15.05
2022-09-24T02:37:23.896Z,14.99
2022-09-24T02:39:51.148Z,14.95
2022-09-24T02:42:20.087Z,14.94
2022-09-24T02:44:47.528Z,14.95
2022-09-24T02:47:14.706Z,14.95
2022-09-24T02:49:41.394Z,14.93
2022-09-24T02:52:08.070Z,14.91
2022-09-24T02:54:34.677Z,14.89
2022-09-24T02:57:01.259Z,14.86
2022-09-24T02:59:28.027Z,14.82
2022-09-24T03:01:54.751Z,14.82
2022-09-24T03:04:22.065Z,14.82
2022-09-24T03:06:51.222Z,14.80
2022-09-24T03:09:26.208Z,14.78
2022-09-24T03:11:57.148Z,14.72
2022-09-24T03:14:24.432Z,14.69
2022-09-24T03:16:51.010Z,14.63
2022-09-24T03:19:17.505Z,14.57
2022-09-24T03:21:44.367Z,14.49
2022-09-24T03:24:10.939Z,14.41
2022-09-24T03:26:38.040Z,14.38
2022-09-24T03:29:05.323Z,14.36
2022-09-24T03:31:32.340Z,14.38
2022-09-24T03:33:59.271Z,14.40
2022-09-24T03:36:27.291Z,14.40
2022-09-24T03:38:56.717Z,14.39
2022-09-24T03:41:27.717Z,14.39
2022-09-24T03:43:55.453Z,14.33
2022-09-24T03:46:24.280Z,14.32
2022-09-24T03:48:51.037Z,14.31
2022-09-24T03:51:20.080Z,14.32
2022-09-24T03:53:47.911Z,14.31
2022-09-24T03:56:14.523Z,14.35
2022-09-24T03:58:41.832Z,14.36
2022-09-24T04:01:10.564Z,14.35
2022-09-24T04:03:37.648Z,14.33
2022-09-24T04:06:04.948Z,14.30
2022-09-24T04:08:31.694Z,14.30
2022-09-24T04:10:58.878Z,14.24
2022-09-24T04:13:26.027Z,14.22
2022-09-24T04:15:53.754Z,14.22
2022-09-24T04:18:21.471Z,14.23
2022-09-24T04:20:48.118Z,14.24
2022-09-24T04:23:15.075Z,14.23
2022-09-24T04:25:41.672Z,14.25
2022-09-24T04:28:10.170Z,14.27
2022-09-24T04:30:38.195Z,14.26
2022-09-24T04:33:05.522Z,14.24
2022-09-24T04:35:35.292Z,14.25
2022-09-24T04:38:02.152Z,14.22
2022-09-24T04:40:29.967Z,14.18
2022-09-24T04:42:56.589Z,14.22
2022-09-24T04:45:24.832Z,14.24
2022-09-24T04:47:56.119Z,14.26
2022-09-24T04:50:23.654Z,14.27
2022-09-24T04:52:55.698Z,14.25
2022-09-24T04:55:27.730Z,14.14
2022-09-24T04:57:58.209Z,14.14
2022-09-24T05:00:28.432Z,14.05
2022-09-24T05:02:59.436Z,13.98
2022-09-24T05:05:26.992Z,14.02
2022-09-24T05:07:53.487Z,14.07
2022-09-24T05:10:19.993Z,14.18
2022-09-24T05:12:46.498Z,14.27
2022-09-24T05:15:13.160Z,14.34
2022-09-24T05:17:40.042Z,14.39
2022-09-24T05:20:08.176Z,14.43
2022-09-24T05:22:36.539Z,14.44
2022-09-24T05:25:03.333Z,14.44
2022-09-24T05:27:29.952Z,14.45
2022-09-24T05:29:56.478Z,14.48
2022-09-24T05:32:23.231Z,14.51
2022-09-24T05:34:51.020Z,14.58
2022-09-24T05:37:18.155Z,14.65
2022-09-24T05:39:44.880Z,14.72
2022-09-24T05:42:14.248Z,14.75
2022-09-24T05:44:42.871Z,14.77
2022-09-24T05:47:09.997Z,14.82
2022-09-24T05:49:38.262Z,14.86
2022-09-24T05:52:05.266Z,14.90
2022-09-24T05:54:31.965Z,14.94
2022-09-24T05:56:58.892Z,14.99
2022-09-24T05:59:48.781Z,15.07
2022-09-24T06:02:27.198Z,15.11
2022-09-24T06:04:53.874Z,15.10
2022-09-24T06:07:21.401Z,15.20
2022-09-24T06:09:48.971Z,15.32
2022-09-24T06:12:15.801Z,15.42
2022-09-24T06:14:42.639Z,15.50
2022-09-24T06:17:12.281Z,15.53
2022-09-24T06:19:39.249Z,15.57
2022-09-24T06:22:05.828Z,15.67
2022-09-24T06:24:32.450Z,15.75
2022-09-24T06:27:02.161Z,15.77
2022-09-24T06:29:28.765Z,15.77
2022-09-24T06:31:55.402Z,15.76
2022-09-24T06:34:21.922Z,15.67
2022-09-24T06:36:48.484Z,15.65
2022-09-24T06:39:15.099Z,15.69
2022-09-24T06:41:50.518Z,15.75
2022-09-24T06:44:17.930Z,15.82
2022-09-24T06:46:45.399Z,16.02
2022-09-24T06:49:12.503Z,16.28
2022-09-24T06:51:39.716Z,16.29
2022-09-24T06:54:06.347Z,16.38
2022-09-24T06:56:33.019Z,16.43
2022-09-24T06:58:59.598Z,16.30
2022-09-24T07:01:26.271Z,16.24
2022-09-24T07:03:52.931Z,16.24
2022-09-24T07:06:19.589Z,16.23
2022-09-24T07:08:50.857Z,16.33
2022-09-24T07:11:17.454Z,16.40
2022-09-24T07:13:44.030Z,16.60
2022-09-24T07:16:10.774Z,16.82
2022-09-24T07:18:38.657Z,17.08
2022-09-24T07:21:06.607Z,17.34
2022-09-24T07:23:33.192Z,17.49
2022-09-24T07:25:59.728Z,17.54
2022-09-24T07:28:26.407Z,17.54
2022-09-24T07:30:58.332Z,17.56
2022-09-24T07:33:24.944Z,17.68
2022-09-24T07:35:51.550Z,17.65
2022-09-24T07:38:18.356Z,17.61
2022-09-24T07:40:45.439Z,17.72
2022-09-24T07:43:13.864Z,17.98
2022-09-24T07:45:42.374Z,18.38
2022-09-24T07:48:10.432Z,18.91
2022-09-24T07:50:41.630Z,19.35
2022-09-24T07:53:19.590Z,19.53
2022-09-24T07:55:59.270Z,19.36
2022-09-24T07:58:26.339Z,19.01
2022-09-24T08:00:57.233Z,18.70
2022-09-24T08:03:27.136Z,18.46
2022-09-24T08:05:58.498Z,18.34
2022-09-24T08:08:28.502Z,18.31
2022-09-24T08:11:50.762Z,18.51
2022-09-24T08:14:21.057Z,18.88
2022-09-24T08:16:47.762Z,19.22
2022-09-24T08:19:16.902Z,19.46
2022-09-24T08:21:43.551Z,19.60
2022-09-24T08:24:14.900Z,19.66
2022-09-24T08:26:42.274Z,19.66
2022-09-24T08:29:09.087Z,19.74
2022-09-24T08:31:35.810Z,19.99
2022-09-24T08:34:02.570Z,20.24
2022-09-24T08:36:29.357Z,20.39
2022-09-24T08:39:08.523Z,20.46
2022-09-24T08:41:57.070Z,20.36
2022-09-24T08:45:03.897Z,20.02
2022-09-24T08:47:37.134Z,20.04
2022-09-24T08:50:14.659Z,19.81
2022-09-24T08:53:07.093Z,19.29
2022-09-24T08:55:37.457Z,19.37
2022-09-24T08:58:28.479Z,19.66
2022-09-24T09:01:26.669Z,19.98
2022-09-24T09:04:03.512Z,20.17
2022-09-24T09:06:48.101Z,20.23
2022-09-24T09:09:25.855Z,20.42
2022-09-24T09:12:01.279Z,20.75
2022-09-24T09:14:47.171Z,21.17
2022-09-24T09:17:37.977Z,21.40
2022-09-24T09:20:16.100Z,21.46
2022-09-24T09:22:47.553Z,21.94
2022-09-24T09:25:20.257Z,22.57
2022-09-24T09:27:51.244Z,22.62
2022-09-24T09:30:20.728Z,22.17
2022-09-24T09:33:17.480Z,21.71
2022-09-24T09:36:25.585Z,21.23
2022-09-24T09:39:21.657Z,20.94
2022-09-24T09:42:02.388Z,20.61
2022-09-24T09:44:37.205Z,20.47
2022-09-24T09:47:26.280Z,20.37
2022-09-24T09:49:57.683Z,20.30
2022-09-24T09:52:29.214Z,20.21
2022-09-24T09:54:56.011Z,19.92
2022-09-24T09:57:25.652Z,19.68
2022-09-24T09:59:54.964Z,20.01
2022-09-24T10:02:31.207Z,20.86
2022-09-24T10:04:59.466Z,22.48
2022-09-24T10:07:26.062Z,24.46
2022-09-24T10:10:00.614Z,25.92
2022-09-24T10:12:28.505Z,25.63
2022-09-24T10:14:59.653Z,24.94
2022-09-24T10:17:38.014Z,24.00
2022-09-24T10:20:14.835Z,23.21
2022-09-24T10:23:06.933Z,22.71
2022-09-24T10:25:36.301Z,22.40
2022-09-24T10:28:26.880Z,22.13
2022-09-24T10:30:59.087Z,22.06
2022-09-24T10:33:26.658Z,22.31
2022-09-24T10:36:07.851Z,22.86
2022-09-24T10:38:34.777Z,23.08
2022-09-24T10:41:01.491Z,23.40
2022-09-24T10:43:28.215Z,24.11
2022-09-24T10:46:04.033Z,24.29
2022-09-24T10:48:44.472Z,23.80
2022-09-24T10:51:45.454Z,23.34
2022-09-24T10:54:20.809Z,23.38
2022-09-24T10:56:51.640Z,23.61
2022-09-24T10:59:41.232Z,24.08
2022-09-24T11:02:13.960Z,24.42
2022-09-24T11:05:20.136Z,24.56
2022-09-24T11:08:17.425Z,24.23
2022-09-24T11:11:22.584Z,24.04
2022-09-24T11:14:11.288Z,24.30
2022-09-24T11:17:04.841Z,24.24
2022-09-24T11:20:11.020Z,23.70
2022-09-24T11:23:01.935Z,23.51
2022-09-24T11:25:43.897Z,23.54
2022-09-24T11:28:26.079Z,23.43
2022-09-24T11:31:35.404Z,23.27
2022-09-24T11:34:29.824Z,22.86
2022-09-24T11:37:27.832Z,22.60
2022-09-24T11:40:16.302Z,23.29
2022-09-24T11:42:53.666Z,23.85
2022-09-24T11:45:20.854Z,24.33
2022-09-24T11:48:08.641Z,24.67
2022-09-24T11:50:50.384Z,23.99
2022-09-24T11:53:38.102Z,23.44
2022-09-24T11:56:13.532Z,23.37
2022-09-24T11:58:48.416Z,23.83
2022-09-24T12:01:33.249Z,25.65
2022-09-24T12:04:11.706Z,28.19
2022-09-24T12:06:47.263Z,29.03
2022-09-24T12:09:47.767Z,28.22
2022-09-24T12:12:20.752Z,27.02
2022-09-24T12:14:50.365Z,26.76
2022-09-24T12:17:18.874Z,26.43
2022-09-24T12:19:55.964Z,26.73
2022-09-24T12:22:24.570Z,26.67
2022-09-24T12:25:00.274Z,25.77
2022-09-24T12:27:38.742Z,25.39
2022-09-24T12:30:33.981Z,25.16
2022-09-24T12:33:21.003Z,25.17
2022-09-24T12:36:02.182Z,24.91
2022-09-24T12:38:40.732Z,24.63
2022-09-24T12:41:20.655Z,24.30
2022-09-24T12:44:11.954Z,23.91
2022-09-24T12:46:44.514Z,23.80
2022-09-24T12:49:28.749Z,23.73
2022-09-24T12:51:57.502Z,23.69
2022-09-24T12:54:34.197Z,23.99
2022-09-24T12:57:26.293Z,24.05
2022-09-24T12:59:58.781Z,23.79
2022-09-24T13:02:29.070Z,23.84
2022-09-24T13:05:01.873Z,23.88
2022-09-24T13:07:29.247Z,24.04
2022-09-24T13:09:55.841Z,24.02
2022-09-24T13:12:33.270Z,23.69
2022-09-24T13:15:08.334Z,23.39
2022-09-24T13:17:38.180Z,23.39
2022-09-24T13:20:18.989Z,23.34
2022-09-24T13:22:57.992Z,23.50
2022-09-24T13:25:25.817Z,23.57
2022-09-24T13:27:59.257Z,23.85
2022-09-24T13:30:42.360Z,23.93
2022-09-24T13:33:09.782Z,23.45
2022-09-24T13:35:58.584Z,23.49
2022-09-24T13:38:34.228Z,23.38
2022-09-24T13:41:13.315Z,23.21
2022-09-24T13:43:56.439Z,22.97
2022-09-24T13:46:25.613Z,22.63
2022-09-24T13:48:56.433Z,22.50
2022-09-24T13:51:29.930Z,22.52
2022-09-24T13:54:34.522Z,22.54
2022-09-24T13:57:42.770Z,22.68
2022-09-24T14:00:16.332Z,22.45
2022-09-24T14:03:14.431Z,22.04
2022-09-24T14:05:41.857Z,22.05
2022-09-24T14:08:15.480Z,22.06
2022-09-24T14:10:43.021Z,22.20
2022-09-24T14:13:22.214Z,22.33
2022-09-24T14:15:57.978Z,22.52
2022-09-24T14:18:27.201Z,22.67
2022-09-24T14:21:26.912Z,22.76
2022-09-24T14:24:03.418Z,22.79
2022-09-24T14:26:51.828Z,22.56
2022-09-24T14:29:25.393Z,22.53
2022-09-24T14:31:59.752Z,22.21
2022-09-24T14:34:35.910Z,22.20
2022-09-24T14:37:21.436Z,22.35
2022-09-24T14:39:51.937Z,22.42
2022-09-24T14:42:29.680Z,22.22
2022-09-24T14:44:56.631Z,22.13
2022-09-24T14:47:29.125Z,22.14
2022-09-24T14:49:56.119Z,22.10
2022-09-24T14:52:27.721Z,22.06
2022-09-24T14:55:14.518Z,21.84
2022-09-24T14:57:46.085Z,21.68
2022-09-24T15:00:46.424Z,21.55
2022-09-24T15:03:16.414Z,21.35
2022-09-24T15:05:45.112Z,21.33
2022-09-24T15:08:24.048Z,21.50
2022-09-24T15:11:01.793Z,21.59
2022-09-24T15:13:33.504Z,21.67
2022-09-24T15:16:06.256Z,21.81
2022-09-24T15:18:35.388Z,21.86
2022-09-24T15:21:06.146Z,21.83
2022-09-24T15:23:33.047Z,21.60
2022-09-24T15:25:59.735Z,21.66
2022-09-24T15:28:29.049Z,21.80
2022-09-24T15:30:58.766Z,21.80
2022-09-24T15:33:25.414Z,21.84
2022-09-24T15:35:52.420Z,21.86
2022-09-24T15:38:20.090Z,21.83
2022-09-24T15:40:47.186Z,21.48
2022-09-24T15:43:24.654Z,21.34
2022-09-24T15:45:52.126Z,21.25
2022-09-24T15:48:18.842Z,21.16
2022-09-24T15:50:46.823Z,21.00
2022-09-24T15:53:25.917Z,20.88
2022-09-24T15:55:55.879Z,20.73
2022-09-24T15:58:23.903Z,20.58
2022-09-24T16:00:50.983Z,20.43
2022-09-24T16:03:20.231Z,20.37
2022-09-24T16:05:47.879Z,20.31
2022-09-24T16:08:15.867Z,20.31
2022-09-24T16:10:43.194Z,20.33
2022-09-24T16:13:10.757Z,20.33
2022-09-24T16:15:38.166Z,20.38
2022-09-24T16:18:06.082Z,20.39
2022-09-24T16:20:34.170Z,20.40
2022-09-24T16:23:00.730Z,20.31
2022-09-24T16:25:28.050Z,20.23
2022-09-24T16:27:56.358Z,20.20
2022-09-24T16:30:23.147Z,20.21
2022-09-24T16:32:49.875Z,20.16
2022-09-24T16:35:17.362Z,20.18
2022-09-24T16:37:43.956Z,20.14
2022-09-24T16:40:11.135Z,20.08
2022-09-24T16:42:37.862Z,20.13
2022-09-24T16:45:04.966Z,20.18
2022-09-24T16:47:31.580Z,20.22
2022-09-24T16:49:58.238Z,20.19
2022-09-24T16:52:24.856Z,20.11
2022-09-24T16:54:51.482Z,20.05
2022-09-24T16:57:18.073Z,20.02
2022-09-24T16:59:44.597Z,19.95
2022-09-24T17:02:12.474Z,19.84
2022-09-24T17:04:39.819Z,19.68
2022-09-24T17:07:06.689Z,19.49
2022-09-24T17:09:51.871Z,19.32
2022-09-24T17:12:18.533Z,18.99
2022-09-24T17:14:45.139Z,18.56
2022-09-24T17:17:11.791Z,18.15
2022-09-24T17:19:38.365Z,17.76
2022-09-24T17:22:05.044Z,17.11
2022-09-24T17:24:31.876Z,16.61
2022-09-24T17:26:58.527Z,16.17
2022-09-24T17:29:30.324Z,15.78
2022-09-24T17:31:57.892Z,15.63
2022-09-24T17:34:24.652Z,15.83
2022-09-24T17:36:51.335Z,16.07
2022-09-24T17:39:18.902Z,16.15
2022-09-24T17:41:45.543Z,16.19
2022-09-24T17:44:13.536Z,16.23
2022-09-24T17:46:40.249Z,16.23
2022-09-24T17:49:07.206Z,16.25
2022-09-24T17:51:38.710Z,16.27
2022-09-24T17:54:08.396Z,16.24
2022-09-24T17:56:39.127Z,15.99
2022-09-24T17:59:12.236Z,15.82
2022-09-24T18:01:40.381Z,15.81
2022-09-24T18:04:11.334Z,15.83
2022-09-24T18:06:40.047Z,15.87
2022-09-24T18:09:07.535Z,15.90
2022-09-24T18:11:46.804Z,15.95
2022-09-24T18:14:16.997Z,15.95
2022-09-24T18:16:44.519Z,15.96
2022-09-24T18:19:13.143Z,15.93
2022-09-24T18:21:39.996Z,15.95
2022-09-24T18:24:07.305Z,16.01
2022-09-24T18:26:36.849Z,16.08
2022-09-24T18:29:11.942Z,16.20
2022-09-24T18:31:39.664Z,16.29
2022-09-24T18:34:10.615Z,16.36
2022-09-24T18:36:40.330Z,16.42
2022-09-24T18:39:08.436Z,16.43
2022-09-24T18:41:36.166Z,16.44
2022-09-24T18:44:03.704Z,16.55
2022-09-24T18:46:32.708Z,16.61
2022-09-24T18:49:00.830Z,16.66
2022-09-24T18:51:31.461Z,16.70
2022-09-24T18:54:00.845Z,16.68
2022-09-24T18:56:27.769Z,16.70
2022-09-24T18:59:07.146Z,16.73
2022-09-24T19:01:37.336Z,16.73
2022-09-24T19:04:04.611Z,16.73
2022-09-24T19:06:34.016Z,16.75
2022-09-24T19:09:00.824Z,16.74
2022-09-24T19:11:30.537Z,16.68
2022-09-24T19:13:58.406Z,16.71
2022-09-24T19:16:25.279Z,16.73
2022-09-24T19:18:53.195Z,16.86
2022-09-24T19:21:20.984Z,16.98
2022-09-24T19:23:49.432Z,17.03
2022-09-24T19:26:22.103Z,17.00
2022-09-24T19:28:50.946Z,17.03
2022-09-24T19:31:23.530Z,17.13
2022-09-24T19:33:52.050Z,17.13
2022-09-24T19:36:19.816Z,17.06
2022-09-24T19:38:48.957Z,17.00
2022-09-24T19:41:24.828Z,16.91
2022-09-24T19:43:53.074Z,16.80
2022-09-24T19:46:24.253Z,16.72
2022-09-24T19:48:52.233Z,16.64
2022-09-24T19:51:24.896Z,16.57
2022-09-24T19:53:53.924Z,16.49
2022-09-24T19:56:22.687Z,16.42
2022-09-24T19:58:52.612Z,16.39
2022-09-24T20:01:22.218Z,16.36
2022-09-24T20:03:49.248Z,16.23
2022-09-24T20:06:22.699Z,16.11
2022-09-24T20:08:49.454Z,16.07
2022-09-24T20:11:19.343Z,16.04
2022-09-24T20:13:50.158Z,16.02
2022-09-24T20:16:22.805Z,16.01
2022-09-24T20:18:50.872Z,15.99
2022-09-24T20:21:19.560Z,15.94
2022-09-24T20:23:50.179Z,15.90
2022-09-24T20:26:35.799Z,15.87
2022-09-24T20:29:03.132Z,15.86
2022-09-24T20:31:30.142Z,15.89
2022-09-24T20:33:57.445Z,15.89
2022-09-24T20:36:25.316Z,15.86
2022-09-24T20:38:55.119Z,15.88
2022-09-24T20:41:24.393Z,15.87
2022-09-24T20:43:52.490Z,15.81
2022-09-24T20:46:24.028Z,15.76
2022-09-24T20:48:59.945Z,15.81
2022-09-24T20:51:33.567Z,15.93
2022-09-24T20:54:01.350Z,15.97
2022-09-24T20:56:30.473Z,16.01
2022-09-24T20:58:57.430Z,15.99
2022-09-24T21:01:24.984Z,16.00
2022-09-24T21:03:51.953Z,16.09
2022-09-24T21:06:22.810Z,16.18
2022-09-24T21:08:49.641Z,16.26
2022-09-24T21:11:18.725Z,16.29
2022-09-24T21:13:51.070Z,16.28
2022-09-24T21:16:20.891Z,16.24
2022-09-24T21:18:48.792Z,16.27
2022-09-24T21:21:18.780Z,16.32
2022-09-24T21:23:48.772Z,16.37
2022-09-24T21:26:22.793Z,16.37
2022-09-24T21:28:55.668Z,16.33
2022-09-24T21:31:25.014Z,16.30
2022-09-24T21:33:56.173Z,16.32
2022-09-24T21:36:26.314Z,16.35
2022-09-24T21:39:08.625Z,16.38
2022-09-24T21:41:39.686Z,16.36
2022-09-24T21:44:12.284Z,16.36
2022-09-24T21:46:41.352Z,16.35
2022-09-24T21:49:08.015Z,16.37
2022-09-24T21:51:34.672Z,16.40
2022-09-24T21:54:03.921Z,16.46
2022-09-24T21:56:32.716Z,16.49
2022-09-24T21:59:26.653Z,16.53
2022-09-24T22:01:54.574Z,16.48
2022-09-24T22:04:22.015Z,16.48
2022-09-24T22:06:48.749Z,16.48
2022-09-24T22:09:15.903Z,16.54
2022-09-24T22:11:43.628Z,16.47
2022-09-24T22:14:10.300Z,16.42
2022-09-24T22:16:37.119Z,16.36
2022-09-24T22:19:05.571Z,16.27
2022-09-24T22:21:32.874Z,16.22
2022-09-24T22:23:59.936Z,16.23
2022-09-24T22:26:26.641Z,16.27
2022-09-24T22:28:53.933Z,16.25
2022-09-24T22:31:23.344Z,16.26
2022-09-24T22:34:08.641Z,16.30
2022-09-24T22:36:36.008Z,16.26
2022-09-24T22:39:04.528Z,16.27
2022-09-24T22:41:32.799Z,16.27
2022-09-24T22:43:59.347Z,16.33
2022-09-24T22:46:27.248Z,16.38
2022-09-24T22:48:57.318Z,16.41
2022-09-24T22:51:24.719Z,16.40
2022-09-24T22:53:52.392Z,16.33
2022-09-24T22:56:21.131Z,16.36
2022-09-24T22:58:55.544Z,16.40
2022-09-24T23:01:25.034Z,16.44
2022-09-24T23:03:53.254Z,16.43
2022-09-24T23:06:20.900Z,16.44
2022-09-24T23:08:49.132Z,16.46
2022-09-24T23:11:20.801Z,16.46
2022-09-24T23:13:55.237Z,16.40
2022-09-24T23:16:28.240Z,16.37
2022-09-24T23:19:00.317Z,16.36
2022-09-24T23:21:30.392Z,16.35
2022-09-24T23:24:06.393Z,16.31
2022-09-24T23:26:33.582Z,16.31
2022-09-24T23:29:00.921Z,16.33
2022-09-24T23:31:36.930Z,16.37
2022-09-24T23:34:06.745Z,16.37
2022-09-24T23:36:34.300Z,16.36
2022-09-24T23:39:01.668Z,16.36
2022-09-24T23:41:29.929Z,16.33
2022-09-24T23:43:56.633Z,16.28
2022-09-24T23:46:23.234Z,16.23
2022-09-24T23:48:49.823Z,16.11
2022-09-24T23:51:16.363Z,16.01
2022-09-24T23:53:42.875Z,15.89
2022-09-24T23:56:09.477Z,15.73
2022-09-24T23:58:36.499Z,15.55
